sensor_id;sensor_type;location;lat;lon;timestamp;P1;durP1;ratioP1;P2;durP2;ratioP2
19339;SDS011;9804;52.350;6.684;2022-12-18T00:01:56;127.97;;;33.00;;
19339;SDS011;9804;52.350;6.684;2022-12-18T00:04:24;123.40;;;33.43;;
19339;SDS011;9804;52.350;6.684;2022-12-18T00:06:51;109.13;;;31.47;;
19339;SDS011;9804;52.350;6.684;2022-12-18T00:09:17;116.07;;;30.07;;
19339;SDS011;9804;52.350;6.684;2022-12-18T00:11:42;106.80;;;29.90;;
19339;SDS011;9804;52.350;6.684;2022-12-18T00:14:08;119.40;;;31.50;;
19339;SDS011;9804;52.350;6.684;2022-12-18T00:16:35;118.30;;;30.47;;
19339;SDS011;9804;52.350;6.684;2022-12-18T00:19:02;110.67;;;29.70;;
19339;SDS011;9804;52.350;6.684;2022-12-18T00:21:29;116.20;;;31.60;;
19339;SDS011;9804;52.350;6.684;2022-12-18T00:23:56;105.60;;;29.73;;
19339;SDS011;9804;52.350;6.684;2022-12-18T00:26:23;126.97;;;31.60;;
19339;SDS011;9804;52.350;6.684;2022-12-18T00:28:58;116.77;;;29.90;;
19339;SDS011;9804;52.350;6.684;2022-12-18T00:31:24;118.93;;;32.20;;
19339;SDS011;9804;52.350;6.684;2022-12-18T00:33:50;107.13;;;30.67;;
19339;SDS011;9804;52.350;6.684;2022-12-18T00:36:17;105.97;;;29.07;;
19339;SDS011;9804;52.350;6.684;2022-12-18T00:38:44;104.37;;;28.50;;
19339;SDS011;9804;52.350;6.684;2022-12-18T00:41:11;110.70;;;29.53;;
19339;SDS011;9804;52.350;6.684;2022-12-18T00:43:38;102.10;;;29.40;;
19339;SDS011;9804;52.350;6.684;2022-12-18T00:46:04;108.20;;;29.83;;
19339;SDS011;9804;52.350;6.684;2022-12-18T00:48:30;117.23;;;30.03;;
19339;SDS011;9804;52.350;6.684;2022-12-18T00:50:55;102.80;;;28.13;;
19339;SDS011;9804;52.350;6.684;2022-12-18T00:53:21;100.67;;;28.60;;
19339;SDS011;9804;52.350;6.684;2022-12-18T00:55:46;99.60;;;28.60;;
19339;SDS011;9804;52.350;6.684;2022-12-18T00:58:13;99.03;;;27.40;;
19339;SDS011;9804;52.350;6.684;2022-12-18T01:00:40;99.73;;;28.50;;
19339;SDS011;9804;52.350;6.684;2022-12-18T01:03:06;96.53;;;28.50;;
19339;SDS011;9804;52.350;6.684;2022-12-18T01:05:32;105.90;;;30.27;;
19339;SDS011;9804;52.350;6.684;2022-12-18T01:07:57;106.57;;;27.67;;
19339;SDS011;9804;52.350;6.684;2022-12-18T01:10:23;97.90;;;28.23;;
19339;SDS011;9804;52.350;6.684;2022-12-18T01:12:49;114.23;;;28.40;;
19339;SDS011;9804;52.350;6.684;2022-12-18T01:15:15;98.73;;;27.37;;
19339;SDS011;9804;52.350;6.684;2022-12-18T01:17:42;108.07;;;29.23;;
19339;SDS011;9804;52.350;6.684;2022-12-18T01:20:08;102.63;;;27.53;;
19339;SDS011;9804;52.350;6.684;2022-12-18T01:22:34;94.23;;;27.47;;
19339;SDS011;9804;52.350;6.684;2022-12-18T01:25:00;98.10;;;27.40;;
19339;SDS011;9804;52.350;6.684;2022-12-18T01:27:26;101.87;;;29.80;;
19339;SDS011;9804;52.350;6.684;2022-12-18T01:29:51;101.27;;;28.07;;
19339;SDS011;9804;52.350;6.684;2022-12-18T01:32:17;102.27;;;27.63;;
19339;SDS011;9804;52.350;6.684;2022-12-18T01:34:42;96.53;;;24.93;;
19339;SDS011;9804;52.350;6.684;2022-12-18T01:37:08;83.87;;;25.50;;
19339;SDS011;9804;52.350;6.684;2022-12-18T01:39:33;80.93;;;26.73;;
19339;SDS011;9804;52.350;6.684;2022-12-18T01:41:59;80.33;;;24.40;;
19339;SDS011;9804;52.350;6.684;2022-12-18T01:47:15;89.83;;;25.90;;
19339;SDS011;9804;52.350;6.684;2022-12-18T01:50:07;85.57;;;26.57;;
19339;SDS011;9804;52.350;6.684;2022-12-18T01:53:02;82.93;;;25.23;;
19339;SDS011;9804;52.350;6.684;2022-12-18T01:55:32;78.37;;;23.97;;
19339;SDS011;9804;52.350;6.684;2022-12-18T01:58:03;85.40;;;25.87;;
19339;SDS011;9804;52.350;6.684;2022-12-18T02:00:28;87.80;;;26.37;;
19339;SDS011;9804;52.350;6.684;2022-12-18T02:02:54;80.70;;;23.80;;
19339;SDS011;9804;52.350;6.684;2022-12-18T02:05:29;78.53;;;23.43;;
19339;SDS011;9804;52.350;6.684;2022-12-18T02:11:08;88.60;;;24.97;;
19339;SDS011;9804;52.350;6.684;2022-12-18T02:13:37;99.40;;;31.00;;
19339;SDS011;9804;52.350;6.684;2022-12-18T02:16:12;88.83;;;25.87;;
19339;SDS011;9804;52.350;6.684;2022-12-18T02:18:57;74.23;;;24.33;;
19339;SDS011;9804;52.350;6.684;2022-12-18T02:21:36;105.40;;;33.27;;
19339;SDS011;9804;52.350;6.684;2022-12-18T02:24:25;103.13;;;32.90;;
19339;SDS011;9804;52.350;6.684;2022-12-18T02:27:00;86.00;;;25.53;;
19339;SDS011;9804;52.350;6.684;2022-12-18T02:29:32;99.23;;;33.33;;
19339;SDS011;9804;52.350;6.684;2022-12-18T02:32:02;97.37;;;33.20;;
19339;SDS011;9804;52.350;6.684;2022-12-18T02:34:31;87.33;;;30.87;;
19339;SDS011;9804;52.350;6.684;2022-12-18T02:37:01;80.03;;;24.77;;
19339;SDS011;9804;52.350;6.684;2022-12-18T02:39:29;78.83;;;23.37;;
19339;SDS011;9804;52.350;6.684;2022-12-18T02:41:57;73.77;;;23.57;;
19339;SDS011;9804;52.350;6.684;2022-12-18T02:44:24;65.10;;;20.27;;
19339;SDS011;9804;52.350;6.684;2022-12-18T02:46:50;71.73;;;21.97;;
19339;SDS011;9804;52.350;6.684;2022-12-18T02:49:22;73.40;;;23.33;;
19339;SDS011;9804;52.350;6.684;2022-12-18T02:51:53;72.73;;;23.13;;
19339;SDS011;9804;52.350;6.684;2022-12-18T02:54:27;68.53;;;21.40;;
19339;SDS011;9804;52.350;6.684;2022-12-18T02:57:02;72.03;;;22.30;;
19339;SDS011;9804;52.350;6.684;2022-12-18T02:59:40;69.00;;;21.07;;
19339;SDS011;9804;52.350;6.684;2022-12-18T03:04:47;77.27;;;23.60;;
19339;SDS011;9804;52.350;6.684;2022-12-18T03:07:21;71.37;;;21.10;;
19339;SDS011;9804;52.350;6.684;2022-12-18T03:09:52;71.80;;;22.37;;
19339;SDS011;9804;52.350;6.684;2022-12-18T03:12:21;69.90;;;21.30;;
19339;SDS011;9804;52.350;6.684;2022-12-18T03:15:15;64.50;;;21.80;;
19339;SDS011;9804;52.350;6.684;2022-12-18T03:17:45;71.73;;;22.93;;
19339;SDS011;9804;52.350;6.684;2022-12-18T03:20:14;61.63;;;21.93;;
19339;SDS011;9804;52.350;6.684;2022-12-18T03:22:44;69.20;;;21.73;;
19339;SDS011;9804;52.350;6.684;2022-12-18T03:25:13;61.13;;;20.57;;
19339;SDS011;9804;52.350;6.684;2022-12-18T03:27:51;61.53;;;20.10;;
19339;SDS011;9804;52.350;6.684;2022-12-18T03:30:21;60.17;;;19.47;;
19339;SDS011;9804;52.350;6.684;2022-12-18T03:33:04;64.20;;;19.97;;
19339;SDS011;9804;52.350;6.684;2022-12-18T03:35:37;62.77;;;20.67;;
19339;SDS011;9804;52.350;6.684;2022-12-18T03:38:05;62.73;;;19.40;;
19339;SDS011;9804;52.350;6.684;2022-12-18T03:40:34;59.40;;;19.27;;
19339;SDS011;9804;52.350;6.684;2022-12-18T03:46:02;49.30;;;19.03;;
19339;SDS011;9804;52.350;6.684;2022-12-18T03:48:33;65.73;;;24.50;;
19339;SDS011;9804;52.350;6.684;2022-12-18T03:51:08;52.10;;;19.23;;
19339;SDS011;9804;52.350;6.684;2022-12-18T03:56:23;54.27;;;18.70;;
19339;SDS011;9804;52.350;6.684;2022-12-18T03:58:52;49.43;;;18.30;;
19339;SDS011;9804;52.350;6.684;2022-12-18T04:01:18;52.53;;;17.40;;
19339;SDS011;9804;52.350;6.684;2022-12-18T04:03:47;43.37;;;16.90;;
19339;SDS011;9804;52.350;6.684;2022-12-18T04:06:14;58.30;;;17.03;;
19339;SDS011;9804;52.350;6.684;2022-12-18T04:08:41;55.67;;;18.37;;
19339;SDS011;9804;52.350;6.684;2022-12-18T04:11:07;56.20;;;18.63;;
19339;SDS011;9804;52.350;6.684;2022-12-18T04:13:34;58.40;;;17.63;;
19339;SDS011;9804;52.350;6.684;2022-12-18T04:16:01;53.17;;;18.10;;
19339;SDS011;9804;52.350;6.684;2022-12-18T04:18:26;55.03;;;18.70;;
19339;SDS011;9804;52.350;6.684;2022-12-18T04:20:51;54.47;;;18.53;;
19339;SDS011;9804;52.350;6.684;2022-12-18T04:23:17;56.10;;;18.10;;
19339;SDS011;9804;52.350;6.684;2022-12-18T04:25:42;51.33;;;18.17;;
19339;SDS011;9804;52.350;6.684;2022-12-18T04:28:08;60.80;;;19.70;;
19339;SDS011;9804;52.350;6.684;2022-12-18T04:30:33;50.47;;;19.10;;
19339;SDS011;9804;52.350;6.684;2022-12-18T04:32:58;52.40;;;18.37;;
19339;SDS011;9804;52.350;6.684;2022-12-18T04:35:24;55.90;;;18.67;;
19339;SDS011;9804;52.350;6.684;2022-12-18T04:37:49;50.63;;;18.20;;
19339;SDS011;9804;52.350;6.684;2022-12-18T04:40:14;52.67;;;18.83;;
19339;SDS011;9804;52.350;6.684;2022-12-18T04:42:40;51.30;;;20.67;;
19339;SDS011;9804;52.350;6.684;2022-12-18T04:45:05;65.53;;;25.67;;
19339;SDS011;9804;52.350;6.684;2022-12-18T04:47:31;64.77;;;24.40;;
19339;SDS011;9804;52.350;6.684;2022-12-18T04:49:57;66.63;;;24.30;;
19339;SDS011;9804;52.350;6.684;2022-12-18T04:52:22;69.47;;;23.57;;
19339;SDS011;9804;52.350;6.684;2022-12-18T04:54:48;64.77;;;23.93;;
19339;SDS011;9804;52.350;6.684;2022-12-18T04:57:13;60.67;;;24.23;;
19339;SDS011;9804;52.350;6.684;2022-12-18T04:59:38;61.13;;;23.73;;
19339;SDS011;9804;52.350;6.684;2022-12-18T05:02:04;55.93;;;22.27;;
19339;SDS011;9804;52.350;6.684;2022-12-18T05:04:29;52.63;;;22.43;;
19339;SDS011;9804;52.350;6.684;2022-12-18T05:06:54;54.70;;;22.13;;
19339;SDS011;9804;52.350;6.684;2022-12-18T05:09:20;55.27;;;22.70;;
19339;SDS011;9804;52.350;6.684;2022-12-18T05:11:45;68.00;;;24.17;;
19339;SDS011;9804;52.350;6.684;2022-12-18T05:14:11;58.63;;;23.67;;
19339;SDS011;9804;52.350;6.684;2022-12-18T05:16:37;57.10;;;23.37;;
19339;SDS011;9804;52.350;6.684;2022-12-18T05:19:02;58.30;;;21.50;;
19339;SDS011;9804;52.350;6.684;2022-12-18T05:21:27;63.53;;;23.27;;
19339;SDS011;9804;52.350;6.684;2022-12-18T05:23:53;56.30;;;21.63;;
19339;SDS011;9804;52.350;6.684;2022-12-18T05:26:18;55.87;;;21.73;;
19339;SDS011;9804;52.350;6.684;2022-12-18T05:28:44;60.37;;;22.93;;
19339;SDS011;9804;52.350;6.684;2022-12-18T05:31:09;59.07;;;23.83;;
19339;SDS011;9804;52.350;6.684;2022-12-18T05:33:35;60.83;;;23.97;;
19339;SDS011;9804;52.350;6.684;2022-12-18T05:36:01;58.00;;;22.67;;
19339;SDS011;9804;52.350;6.684;2022-12-18T05:38:27;61.20;;;23.07;;
19339;SDS011;9804;52.350;6.684;2022-12-18T05:40:54;61.13;;;23.20;;
19339;SDS011;9804;52.350;6.684;2022-12-18T05:43:20;58.70;;;22.50;;
19339;SDS011;9804;52.350;6.684;2022-12-18T05:45:46;59.40;;;22.33;;
19339;SDS011;9804;52.350;6.684;2022-12-18T05:48:12;51.37;;;22.20;;
19339;SDS011;9804;52.350;6.684;2022-12-18T05:50:40;57.70;;;22.37;;
19339;SDS011;9804;52.350;6.684;2022-12-18T05:53:06;54.47;;;22.87;;
19339;SDS011;9804;52.350;6.684;2022-12-18T05:55:33;55.63;;;21.73;;
19339;SDS011;9804;52.350;6.684;2022-12-18T05:58:02;49.23;;;21.07;;
19339;SDS011;9804;52.350;6.684;2022-12-18T06:00:29;54.73;;;21.37;;
19339;SDS011;9804;52.350;6.684;2022-12-18T06:02:55;52.83;;;20.97;;
19339;SDS011;9804;52.350;6.684;2022-12-18T06:05:20;53.23;;;21.33;;
19339;SDS011;9804;52.350;6.684;2022-12-18T06:07:46;48.80;;;20.90;;
19339;SDS011;9804;52.350;6.684;2022-12-18T06:10:11;55.10;;;20.50;;
19339;SDS011;9804;52.350;6.684;2022-12-18T06:12:37;55.90;;;21.47;;
19339;SDS011;9804;52.350;6.684;2022-12-18T06:15:02;50.77;;;20.33;;
19339;SDS011;9804;52.350;6.684;2022-12-18T06:17:31;54.70;;;22.13;;
19339;SDS011;9804;52.350;6.684;2022-12-18T06:19:57;51.67;;;19.83;;
19339;SDS011;9804;52.350;6.684;2022-12-18T06:22:23;52.37;;;20.97;;
19339;SDS011;9804;52.350;6.684;2022-12-18T06:24:48;47.13;;;19.77;;
19339;SDS011;9804;52.350;6.684;2022-12-18T06:27:14;53.17;;;20.77;;
19339;SDS011;9804;52.350;6.684;2022-12-18T06:29:39;48.53;;;20.90;;
19339;SDS011;9804;52.350;6.684;2022-12-18T06:32:04;49.53;;;20.03;;
19339;SDS011;9804;52.350;6.684;2022-12-18T06:34:30;51.60;;;20.40;;
19339;SDS011;9804;52.350;6.684;2022-12-18T06:36:55;54.67;;;20.67;;
19339;SDS011;9804;52.350;6.684;2022-12-18T06:39:20;47.30;;;20.13;;
19339;SDS011;9804;52.350;6.684;2022-12-18T06:41:46;50.57;;;20.10;;
19339;SDS011;9804;52.350;6.684;2022-12-18T06:44:11;46.17;;;18.77;;
19339;SDS011;9804;52.350;6.684;2022-12-18T06:46:36;48.93;;;20.03;;
19339;SDS011;9804;52.350;6.684;2022-12-18T06:49:02;51.17;;;19.87;;
19339;SDS011;9804;52.350;6.684;2022-12-18T06:51:28;50.40;;;19.10;;
19339;SDS011;9804;52.350;6.684;2022-12-18T06:53:54;45.60;;;18.97;;
19339;SDS011;9804;52.350;6.684;2022-12-18T06:56:19;44.07;;;18.00;;
19339;SDS011;9804;52.350;6.684;2022-12-18T06:58:44;46.73;;;19.67;;
19339;SDS011;9804;52.350;6.684;2022-12-18T07:01:10;47.80;;;20.00;;
19339;SDS011;9804;52.350;6.684;2022-12-18T07:03:37;45.23;;;18.80;;
19339;SDS011;9804;52.350;6.684;2022-12-18T07:06:04;40.70;;;17.77;;
19339;SDS011;9804;52.350;6.684;2022-12-18T07:08:30;41.80;;;18.23;;
19339;SDS011;9804;52.350;6.684;2022-12-18T07:10:56;42.30;;;17.07;;
19339;SDS011;9804;52.350;6.684;2022-12-18T07:13:21;44.80;;;17.33;;
19339;SDS011;9804;52.350;6.684;2022-12-18T07:15:47;41.37;;;17.50;;
19339;SDS011;9804;52.350;6.684;2022-12-18T07:18:12;41.67;;;17.30;;
19339;SDS011;9804;52.350;6.684;2022-12-18T07:20:38;45.37;;;17.90;;
19339;SDS011;9804;52.350;6.684;2022-12-18T07:23:03;37.47;;;16.93;;
19339;SDS011;9804;52.350;6.684;2022-12-18T07:25:30;36.87;;;15.83;;
19339;SDS011;9804;52.350;6.684;2022-12-18T07:27:58;38.23;;;16.03;;
19339;SDS011;9804;52.350;6.684;2022-12-18T07:30:24;31.17;;;12.63;;
19339;SDS011;9804;52.350;6.684;2022-12-18T07:32:49;25.17;;;11.80;;
19339;SDS011;9804;52.350;6.684;2022-12-18T07:35:14;31.43;;;11.83;;
19339;SDS011;9804;52.350;6.684;2022-12-18T07:37:40;29.63;;;11.53;;
19339;SDS011;9804;52.350;6.684;2022-12-18T07:40:05;33.97;;;12.20;;
19339;SDS011;9804;52.350;6.684;2022-12-18T07:42:31;35.80;;;13.27;;
19339;SDS011;9804;52.350;6.684;2022-12-18T07:44:57;26.67;;;11.23;;
19339;SDS011;9804;52.350;6.684;2022-12-18T07:47:26;28.13;;;12.40;;
19339;SDS011;9804;52.350;6.684;2022-12-18T07:49:52;27.70;;;11.07;;
19339;SDS011;9804;52.350;6.684;2022-12-18T07:52:17;24.40;;;11.27;;
19339;SDS011;9804;52.350;6.684;2022-12-18T07:54:43;24.87;;;10.67;;
19339;SDS011;9804;52.350;6.684;2022-12-18T07:57:08;29.07;;;10.80;;
19339;SDS011;9804;52.350;6.684;2022-12-18T07:59:34;28.83;;;10.67;;
19339;SDS011;9804;52.350;6.684;2022-12-18T08:01:59;22.37;;;10.37;;
19339;SDS011;9804;52.350;6.684;2022-12-18T08:04:25;28.50;;;11.80;;
19339;SDS011;9804;52.350;6.684;2022-12-18T08:06:50;29.30;;;11.80;;
19339;SDS011;9804;52.350;6.684;2022-12-18T08:09:16;29.13;;;11.33;;
19339;SDS011;9804;52.350;6.684;2022-12-18T08:11:41;39.73;;;12.00;;
19339;SDS011;9804;52.350;6.684;2022-12-18T08:14:06;27.27;;;11.90;;
19339;SDS011;9804;52.350;6.684;2022-12-18T08:16:32;26.03;;;11.60;;
19339;SDS011;9804;52.350;6.684;2022-12-18T08:18:57;29.70;;;10.73;;
19339;SDS011;9804;52.350;6.684;2022-12-18T08:21:24;30.40;;;11.53;;
19339;SDS011;9804;52.350;6.684;2022-12-18T08:23:52;26.73;;;11.27;;
19339;SDS011;9804;52.350;6.684;2022-12-18T08:26:18;23.50;;;11.03;;
19339;SDS011;9804;52.350;6.684;2022-12-18T08:28:44;23.30;;;10.77;;
19339;SDS011;9804;52.350;6.684;2022-12-18T08:31:10;24.73;;;11.67;;
19339;SDS011;9804;52.350;6.684;2022-12-18T08:33:36;31.80;;;11.83;;
19339;SDS011;9804;52.350;6.684;2022-12-18T08:36:03;23.57;;;11.53;;
19339;SDS011;9804;52.350;6.684;2022-12-18T08:38:29;27.63;;;11.63;;
19339;SDS011;9804;52.350;6.684;2022-12-18T08:41:01;27.77;;;10.80;;
19339;SDS011;9804;52.350;6.684;2022-12-18T08:43:28;27.67;;;11.73;;
19339;SDS011;9804;52.350;6.684;2022-12-18T08:46:12;21.80;;;10.03;;
19339;SDS011;9804;52.350;6.684;2022-12-18T08:48:38;31.37;;;11.63;;
19339;SDS011;9804;52.350;6.684;2022-12-18T08:51:03;25.10;;;11.10;;
19339;SDS011;9804;52.350;6.684;2022-12-18T08:53:28;27.40;;;11.10;;
19339;SDS011;9804;52.350;6.684;2022-12-18T08:55:55;26.33;;;10.33;;
19339;SDS011;9804;52.350;6.684;2022-12-18T08:58:21;23.23;;;10.73;;
19339;SDS011;9804;52.350;6.684;2022-12-18T09:00:46;20.93;;;9.60;;
19339;SDS011;9804;52.350;6.684;2022-12-18T09:03:16;24.03;;;11.77;;
19339;SDS011;9804;52.350;6.684;2022-12-18T09:05:43;24.20;;;10.47;;
19339;SDS011;9804;52.350;6.684;2022-12-18T09:08:10;27.53;;;11.37;;
19339;SDS011;9804;52.350;6.684;2022-12-18T09:10:41;23.57;;;10.53;;
19339;SDS011;9804;52.350;6.684;2022-12-18T09:13:08;24.37;;;9.27;;
19339;SDS011;9804;52.350;6.684;2022-12-18T09:15:40;21.93;;;9.90;;
19339;SDS011;9804;52.350;6.684;2022-12-18T09:18:06;24.57;;;10.07;;
19339;SDS011;9804;52.350;6.684;2022-12-18T09:20:32;21.60;;;10.13;;
19339;SDS011;9804;52.350;6.684;2022-12-18T09:22:57;22.23;;;10.23;;
19339;SDS011;9804;52.350;6.684;2022-12-18T09:25:22;22.23;;;10.63;;
19339;SDS011;9804;52.350;6.684;2022-12-18T09:27:48;21.93;;;10.70;;
19339;SDS011;9804;52.350;6.684;2022-12-18T09:30:13;25.27;;;10.20;;
19339;SDS011;9804;52.350;6.684;2022-12-18T09:32:38;20.87;;;9.63;;
19339;SDS011;9804;52.350;6.684;2022-12-18T09:35:04;24.43;;;10.80;;
19339;SDS011;9804;52.350;6.684;2022-12-18T09:37:29;21.13;;;10.50;;
19339;SDS011;9804;52.350;6.684;2022-12-18T09:39:55;23.67;;;11.10;;
19339;SDS011;9804;52.350;6.684;2022-12-18T09:42:21;20.87;;;10.17;;
19339;SDS011;9804;52.350;6.684;2022-12-18T09:44:50;21.37;;;9.77;;
19339;SDS011;9804;52.350;6.684;2022-12-18T09:47:23;22.00;;;9.70;;
19339;SDS011;9804;52.350;6.684;2022-12-18T09:50:37;21.07;;;9.83;;
19339;SDS011;9804;52.350;6.684;2022-12-18T09:52:53;18.87;;;9.63;;
19339;SDS011;9804;52.350;6.684;2022-12-18T09:58:04;18.63;;;8.70;;
19339;SDS011;9804;52.350;6.684;2022-12-18T10:00:36;23.07;;;9.67;;
19339;SDS011;9804;52.350;6.684;2022-12-18T10:03:03;20.90;;;9.47;;
19339;SDS011;9804;52.350;6.684;2022-12-18T10:05:48;17.17;;;9.10;;
19339;SDS011;9804;52.350;6.684;2022-12-18T10:11:03;17.70;;;8.50;;
19339;SDS011;9804;52.350;6.684;2022-12-18T10:13:52;16.10;;;8.70;;
19339;SDS011;9804;52.350;6.684;2022-12-18T10:16:27;17.17;;;8.93;;
19339;SDS011;9804;52.350;6.684;2022-12-18T10:19:04;15.70;;;8.07;;
19339;SDS011;9804;52.350;6.684;2022-12-18T10:24:57;18.13;;;8.27;;
19339;SDS011;9804;52.350;6.684;2022-12-18T10:27:40;19.00;;;8.63;;
19339;SDS011;9804;52.350;6.684;2022-12-18T10:30:12;18.90;;;8.20;;
19339;SDS011;9804;52.350;6.684;2022-12-18T10:32:46;14.83;;;8.47;;
19339;SDS011;9804;52.350;6.684;2022-12-18T10:35:30;17.97;;;8.87;;
19339;SDS011;9804;52.350;6.684;2022-12-18T10:38:38;13.80;;;7.90;;
19339;SDS011;9804;52.350;6.684;2022-12-18T10:40:54;16.97;;;7.47;;
19339;SDS011;9804;52.350;6.684;2022-12-18T10:43:32;14.63;;;7.93;;
19339;SDS011;9804;52.350;6.684;2022-12-18T10:48:33;13.63;;;7.47;;
19339;SDS011;9804;52.350;6.684;2022-12-18T10:51:01;14.30;;;7.23;;
19339;SDS011;9804;52.350;6.684;2022-12-18T10:53:29;13.93;;;7.17;;
19339;SDS011;9804;52.350;6.684;2022-12-18T10:55:57;12.53;;;7.03;;
19339;SDS011;9804;52.350;6.684;2022-12-18T11:01:03;13.33;;;6.67;;
19339;SDS011;9804;52.350;6.684;2022-12-18T11:03:41;13.00;;;6.87;;
19339;SDS011;9804;52.350;6.684;2022-12-18T11:06:16;13.97;;;7.00;;
19339;SDS011;9804;52.350;6.684;2022-12-18T11:08:44;13.67;;;7.17;;
19339;SDS011;9804;52.350;6.684;2022-12-18T11:11:23;13.47;;;6.80;;
19339;SDS011;9804;52.350;6.684;2022-12-18T11:14:42;12.80;;;7.00;;
19339;SDS011;9804;52.350;6.684;2022-12-18T11:16:43;12.27;;;6.13;;
19339;SDS011;9804;52.350;6.684;2022-12-18T11:19:31;12.13;;;6.30;;
19339;SDS011;9804;52.350;6.684;2022-12-18T11:21:59;12.00;;;6.93;;
19339;SDS011;9804;52.350;6.684;2022-12-18T11:24:28;10.17;;;6.30;;
19339;SDS011;9804;52.350;6.684;2022-12-18T11:26:59;11.07;;;5.97;;
19339;SDS011;9804;52.350;6.684;2022-12-18T11:29:37;13.70;;;6.27;;
19339;SDS011;9804;52.350;6.684;2022-12-18T11:34:52;12.13;;;6.63;;
19339;SDS011;9804;52.350;6.684;2022-12-18T11:37:24;11.73;;;5.83;;
19339;SDS011;9804;52.350;6.684;2022-12-18T11:40:01;12.33;;;6.63;;
19339;SDS011;9804;52.350;6.684;2022-12-18T11:42:48;18.27;;;6.77;;
19339;SDS011;9804;52.350;6.684;2022-12-18T11:45:28;11.70;;;6.27;;
19339;SDS011;9804;52.350;6.684;2022-12-18T11:50:51;12.47;;;6.50;;
19339;SDS011;9804;52.350;6.684;2022-12-18T11:53:18;10.70;;;6.07;;
19339;SDS011;9804;52.350;6.684;2022-12-18T11:55:56;10.50;;;6.17;;
19339;SDS011;9804;52.350;6.684;2022-12-18T12:01:11;12.73;;;6.20;;
19339;SDS011;9804;52.350;6.684;2022-12-18T12:09:38;12.50;;;5.87;;
19339;SDS011;9804;52.350;6.684;2022-12-18T12:12:35;12.57;;;6.03;;
19339;SDS011;9804;52.350;6.684;2022-12-18T12:15:34;12.17;;;6.07;;
19339;SDS011;9804;52.350;6.684;2022-12-18T12:20:57;12.97;;;6.40;;
19339;SDS011;9804;52.350;6.684;2022-12-18T12:29:10;10.00;;;5.57;;
19339;SDS011;9804;52.350;6.684;2022-12-18T12:39:25;15.77;;;6.00;;
19339;SDS011;9804;52.350;6.684;2022-12-18T12:41:56;13.70;;;5.87;;
19339;SDS011;9804;52.350;6.684;2022-12-18T12:44:46;10.63;;;5.80;;
19339;SDS011;9804;52.350;6.684;2022-12-18T12:47:19;11.13;;;6.10;;
19339;SDS011;9804;52.350;6.684;2022-12-18T12:49:48;11.53;;;6.37;;
19339;SDS011;9804;52.350;6.684;2022-12-18T12:52:20;11.87;;;6.20;;
19339;SDS011;9804;52.350;6.684;2022-12-18T12:54:54;12.20;;;5.73;;
19339;SDS011;9804;52.350;6.684;2022-12-18T13:00:06;9.97;;;5.77;;
19339;SDS011;9804;52.350;6.684;2022-12-18T13:02:35;9.43;;;5.50;;
19339;SDS011;9804;52.350;6.684;2022-12-18T13:05:19;9.37;;;5.67;;
19339;SDS011;9804;52.350;6.684;2022-12-18T13:10:33;9.83;;;5.63;;
19339;SDS011;9804;52.350;6.684;2022-12-18T13:18:32;8.43;;;5.00;;
19339;SDS011;9804;52.350;6.684;2022-12-18T13:28:16;7.53;;;4.63;;
19339;SDS011;9804;52.350;6.684;2022-12-18T13:40:58;9.27;;;5.50;;
19339;SDS011;9804;52.350;6.684;2022-12-18T13:43:29;9.33;;;5.40;;
19339;SDS011;9804;52.350;6.684;2022-12-18T13:46:01;10.30;;;5.47;;
19339;SDS011;9804;52.350;6.684;2022-12-18T13:48:29;12.27;;;5.23;;
19339;SDS011;9804;52.350;6.684;2022-12-18T13:51:07;11.30;;;5.80;;
19339;SDS011;9804;52.350;6.684;2022-12-18T13:53:44;11.43;;;5.57;;
19339;SDS011;9804;52.350;6.684;2022-12-18T13:56:21;10.63;;;5.73;;
19339;SDS011;9804;52.350;6.684;2022-12-18T14:01:41;8.97;;;5.27;;
19339;SDS011;9804;52.350;6.684;2022-12-18T14:06:49;10.53;;;5.60;;
19339;SDS011;9804;52.350;6.684;2022-12-18T14:09:51;10.47;;;5.93;;
19339;SDS011;9804;52.350;6.684;2022-12-18T14:17:47;9.60;;;5.73;;
19339;SDS011;9804;52.350;6.684;2022-12-18T14:20:14;11.60;;;5.50;;
19339;SDS011;9804;52.350;6.684;2022-12-18T14:22:44;13.33;;;5.93;;
19339;SDS011;9804;52.350;6.684;2022-12-18T14:27:51;10.83;;;5.70;;
19339;SDS011;9804;52.350;6.684;2022-12-18T14:33:04;9.60;;;5.43;;
19339;SDS011;9804;52.350;6.684;2022-12-18T14:35:35;10.37;;;5.67;;
19339;SDS011;9804;52.350;6.684;2022-12-18T14:38:17;9.53;;;5.77;;
19339;SDS011;9804;52.350;6.684;2022-12-18T14:40:46;9.60;;;5.80;;
19339;SDS011;9804;52.350;6.684;2022-12-18T14:43:11;11.17;;;5.70;;
19339;SDS011;9804;52.350;6.684;2022-12-18T14:45:38;10.53;;;5.90;;
19339;SDS011;9804;52.350;6.684;2022-12-18T14:48:06;10.27;;;5.50;;
19339;SDS011;9804;52.350;6.684;2022-12-18T14:50:33;11.70;;;5.87;;
19339;SDS011;9804;52.350;6.684;2022-12-18T14:52:58;10.70;;;5.90;;
19339;SDS011;9804;52.350;6.684;2022-12-18T14:55:24;10.33;;;5.80;;
19339;SDS011;9804;52.350;6.684;2022-12-18T14:57:54;8.90;;;5.60;;
19339;SDS011;9804;52.350;6.684;2022-12-18T15:00:22;11.17;;;5.93;;
19339;SDS011;9804;52.350;6.684;2022-12-18T15:02:52;11.50;;;5.90;;
19339;SDS011;9804;52.350;6.684;2022-12-18T15:05:20;8.83;;;5.57;;
19339;SDS011;9804;52.350;6.684;2022-12-18T15:07:53;11.60;;;6.37;;
19339;SDS011;9804;52.350;6.684;2022-12-18T15:10:21;11.03;;;6.13;;
19339;SDS011;9804;52.350;6.684;2022-12-18T15:12:49;9.63;;;5.97;;
19339;SDS011;9804;52.350;6.684;2022-12-18T15:18:03;10.40;;;6.00;;
19339;SDS011;9804;52.350;6.684;2022-12-18T15:20:41;12.07;;;6.47;;
19339;SDS011;9804;52.350;6.684;2022-12-18T15:23:24;12.13;;;6.27;;
19339;SDS011;9804;52.350;6.684;2022-12-18T15:25:57;11.90;;;7.00;;
19339;SDS011;9804;52.350;6.684;2022-12-18T15:33:38;12.80;;;6.63;;
19339;SDS011;9804;52.350;6.684;2022-12-18T15:36:09;13.03;;;6.80;;
19339;SDS011;9804;52.350;6.684;2022-12-18T15:38:36;12.87;;;6.93;;
19339;SDS011;9804;52.350;6.684;2022-12-18T15:41:02;12.70;;;6.50;;
19339;SDS011;9804;52.350;6.684;2022-12-18T15:43:29;12.17;;;6.47;;
19339;SDS011;9804;52.350;6.684;2022-12-18T15:46:02;13.40;;;6.83;;
19339;SDS011;9804;52.350;6.684;2022-12-18T15:48:32;10.93;;;6.37;;
19339;SDS011;9804;52.350;6.684;2022-12-18T15:50:59;15.40;;;6.63;;
19339;SDS011;9804;52.350;6.684;2022-12-18T15:53:26;11.97;;;6.90;;
19339;SDS011;9804;52.350;6.684;2022-12-18T15:55:54;13.93;;;6.53;;
19339;SDS011;9804;52.350;6.684;2022-12-18T15:58:38;11.37;;;6.63;;
19339;SDS011;9804;52.350;6.684;2022-12-18T16:01:04;13.13;;;6.97;;
19339;SDS011;9804;52.350;6.684;2022-12-18T16:03:29;11.30;;;6.63;;
19339;SDS011;9804;52.350;6.684;2022-12-18T16:05:54;11.33;;;6.73;;
19339;SDS011;9804;52.350;6.684;2022-12-18T16:08:20;10.90;;;6.23;;
19339;SDS011;9804;52.350;6.684;2022-12-18T16:10:46;9.67;;;5.57;;
19339;SDS011;9804;52.350;6.684;2022-12-18T16:13:12;12.30;;;6.57;;
19339;SDS011;9804;52.350;6.684;2022-12-18T16:15:45;13.23;;;7.17;;
19339;SDS011;9804;52.350;6.684;2022-12-18T16:18:10;10.97;;;6.57;;
19339;SDS011;9804;52.350;6.684;2022-12-18T16:20:36;12.60;;;6.97;;
19339;SDS011;9804;52.350;6.684;2022-12-18T16:23:03;13.23;;;6.93;;
19339;SDS011;9804;52.350;6.684;2022-12-18T16:25:29;10.83;;;6.73;;
19339;SDS011;9804;52.350;6.684;2022-12-18T16:27:55;14.27;;;7.40;;
19339;SDS011;9804;52.350;6.684;2022-12-18T16:30:22;12.53;;;7.20;;
19339;SDS011;9804;52.350;6.684;2022-12-18T16:32:50;12.13;;;6.40;;
19339;SDS011;9804;52.350;6.684;2022-12-18T16:35:16;12.70;;;7.20;;
19339;SDS011;9804;52.350;6.684;2022-12-18T16:37:41;16.30;;;6.83;;
19339;SDS011;9804;52.350;6.684;2022-12-18T16:40:08;14.27;;;7.03;;
19339;SDS011;9804;52.350;6.684;2022-12-18T16:42:36;11.47;;;7.03;;